Time;durP1;ratioP1;P1;durP2;ratioP2;P2;SDS_P1;SDS_P2;PMS_P1;PMS_P2;Temp;Humidity;BMP_temperature;BMP_pressure;BME280_temperature;BME280_humidity;BME280_pressure;Samples;Min_cycle;Max_cycle;Signal;HPM_P1;HPM_P2
2022/08/18 00:02:21;;;;;;;12.30;4.78;;;19.50;99.90;;;;;;5073712;28;20075;-56
2022/08/18 00:04:47;;;;;;;14.77;4.93;;;19.40;99.90;;;;;;5074001;28;20050;-56
2022/08/18 00:07:17;;;;;;;16.02;5.53;;;19.20;99.90;;;;;;5073846;28;20032;-56
2022/08/18 00:09:43;;;;;;;12.30;4.45;;;19.50;99.90;;;;;;5073802;28;20040;-56
2022/08/18 00:12:17;;;;;;;17.77;5.78;;;19.50;99.90;;;;;;5073791;28;20124;-57
2022/08/18 00:14:43;;;;;;;13.02;5.40;;;19.40;99.90;;;;;;5073870;28;20075;-56
2022/08/18 00:17:09;;;;;;;14.80;5.65;;;19.10;99.90;;;;;;5073798;28;20032;-57
2022/08/18 00:19:35;;;;;;;12.48;6.03;;;19.40;99.90;;;;;;5072393;28;20502;-58
2022/08/18 00:22:00;;;;;;;9.68;4.53;;;19.40;99.90;;;;;;5073832;28;20112;-56
2022/08/18 00:24:26;;;;;;;13.48;6.38;;;19.20;99.90;;;;;;5073601;28;20095;-57
2022/08/18 00:26:53;;;;;;;20.65;6.03;;;19.10;99.90;;;;;;5073666;28;20592;-56
2022/08/18 00:29:19;;;;;;;10.93;4.93;;;19.00;99.90;;;;;;5073515;28;20044;-57
2022/08/18 00:31:45;;;;;;;13.73;5.03;;;19.00;99.90;;;;;;5077814;28;20051;-57
2022/08/18 00:34:10;;;;;;;15.60;5.35;;;19.00;99.90;;;;;;5077671;28;20173;-56
2022/08/18 00:36:36;;;;;;;17.35;5.03;;;19.10;99.90;;;;;;5077794;28;20040;-56
2022/08/18 00:39:02;;;;;;;21.05;5.80;;;19.20;99.90;;;;;;5077464;28;20039;-57
2022/08/18 00:41:29;;;;;;;14.55;5.35;;;19.00;99.90;;;;;;5077723;28;20115;-56
2022/08/18 00:43:57;;;;;;;13.85;5.50;;;19.10;99.90;;;;;;5077618;28;20052;-56
2022/08/18 00:46:32;;;;;;;23.25;5.55;;;19.00;99.90;;;;;;5077491;28;20044;-56
2022/08/18 00:48:58;;;;;;;15.00;5.45;;;19.10;99.90;;;;;;5077235;28;20063;-57
2022/08/18 00:51:24;;;;;;;17.27;6.35;;;19.00;99.90;;;;;;5077340;28;20080;-57
2022/08/18 00:54:05;;;;;;;13.60;6.30;;;19.20;99.90;;;;;;5077209;28;20083;-57
2022/08/18 00:56:45;;;;;;;8.48;5.47;;;19.20;99.90;;;;;;5077443;28;20040;-56
2022/08/18 00:59:19;;;;;;;;;;;19.30;99.90;;;;;;5077903;28;20039;-56
2022/08/18 01:01:47;;;;;;;14.50;5.30;;;19.00;99.90;;;;;;5077025;28;19920;-57
2022/08/18 01:04:26;;;;;;;18.60;5.90;;;19.10;99.90;;;;;;5077246;28;20032;-57
2022/08/18 01:06:57;;;;;;;14.38;5.70;;;19.00;99.90;;;;;;5077271;28;20048;-57
2022/08/18 01:09:23;;;;;;;17.05;6.47;;;19.20;99.90;;;;;;5077223;28;20075;-56
2022/08/18 01:11:50;;;;;;;19.23;6.65;;;19.00;99.90;;;;;;5077048;28;20134;-57
2022/08/18 01:14:17;;;;;;;13.30;6.60;;;19.10;99.90;;;;;;5076725;28;20051;-58
2022/08/18 01:22:30;;;;;;;20.70;6.53;;;19.00;99.90;;;;;;5076916;28;20048;-58
2022/08/18 01:27:43;;;;;;;19.05;6.75;;;19.00;99.90;;;;;;5076701;28;20048;-57
2022/08/18 01:30:14;;;;;;;32.13;7.25;;;19.00;99.90;;;;;;5076491;28;20098;-56
2022/08/18 01:32:40;;;;;;;23.85;7.07;;;19.10;99.90;;;;;;5075510;28;20033;-56
2022/08/18 01:35:09;;;;;;;17.92;6.60;;;19.30;99.90;;;;;;5076542;28;20386;-56
2022/08/18 01:37:36;;;;;;;21.38;7.95;;;19.10;99.90;;;;;;5076552;28;20046;-57
2022/08/18 01:40:05;;;;;;;17.20;7.38;;;19.10;99.90;;;;;;5076583;28;20048;-57
2022/08/18 01:42:31;;;;;;;21.88;7.22;;;19.00;99.90;;;;;;5076436;28;20044;-56
2022/08/18 01:44:57;;;;;;;21.42;6.65;;;19.00;99.90;;;;;;5076443;28;20040;-56
2022/08/18 01:47:22;;;;;;;19.67;7.43;;;19.10;99.90;;;;;;5076423;28;20044;-56
2022/08/18 01:49:48;;;;;;;22.27;7.53;;;19.10;99.90;;;;;;5075806;28;20067;-57
2022/08/18 01:52:19;;;;;;;21.13;7.00;;;19.10;99.90;;;;;;5076095;28;20049;-56
2022/08/18 01:54:48;;;;;;;20.88;7.53;;;19.10;99.90;;;;;;5076302;28;20044;-56
2022/08/18 01:57:19;;;;;;;18.17;6.78;;;19.20;99.90;;;;;;5076232;28;20055;-56
2022/08/18 01:59:45;;;;;;;16.95;7.75;;;19.20;99.90;;;;;;5076014;28;20073;-56
2022/08/18 02:02:19;;;;;;;19.77;8.15;;;19.10;99.90;;;;;;5076114;28;20099;-56
2022/08/18 02:04:46;;;;;;;15.52;6.82;;;19.30;99.90;;;;;;5076383;28;20040;-56
2022/08/18 02:07:13;;;;;;;16.95;8.43;;;19.30;99.90;;;;;;5074876;28;20090;-57
2022/08/18 02:09:40;;;;;;;18.95;8.18;;;19.00;99.90;;;;;;5075912;28;20040;-57
2022/08/18 02:12:07;;;;;;;22.13;8.25;;;19.30;99.90;;;;;;5074575;28;20106;-57
2022/08/18 02:14:34;;;;;;;19.10;7.05;;;19.20;99.90;;;;;;5075876;28;20041;-58
2022/08/18 02:17:02;;;;;;;20.67;8.20;;;19.40;99.90;;;;;;5075784;28;20032;-57
2022/08/18 02:19:31;;;;;;;16.45;7.00;;;19.40;99.90;;;;;;5075501;28;20043;-56
2022/08/18 02:21:56;;;;;;;18.95;7.80;;;19.10;99.90;;;;;;5075786;28;20046;-58
2022/08/18 02:24:22;;;;;;;15.07;7.35;;;19.10;99.90;;;;;;5075971;28;20036;-56
2022/08/18 02:26:47;;;;;;;19.15;7.70;;;19.30;99.90;;;;;;5075669;28;20040;-57
2022/08/18 02:29:13;;;;;;;34.88;7.30;;;19.40;99.90;;;;;;5075579;28;20115;-56
2022/08/18 02:31:39;;;;;;;26.23;8.90;;;19.30;99.90;;;;;;5075434;28;20484;-57
2022/08/18 02:34:04;;;;;;;23.95;8.30;;;19.10;99.90;;;;;;5075591;28;20049;-56
2022/08/18 02:36:30;;;;;;;21.27;7.22;;;19.40;99.90;;;;;;5075496;28;20032;-57
2022/08/18 02:38:55;;;;;;;12.63;6.97;;;19.40;99.90;;;;;;5075449;28;20379;-57
2022/08/18 02:41:21;;;;;;;19.38;8.35;;;19.20;99.90;;;;;;5075251;28;20055;-56
2022/08/18 02:43:47;;;;;;;15.77;7.15;;;19.10;99.90;;;;;;5074123;28;20044;-56
2022/08/18 02:46:13;;;;;;;22.65;8.10;;;19.40;99.90;;;;;;5075225;28;20502;-56
2022/08/18 02:48:39;;;;;;;24.80;8.07;;;19.10;99.90;;;;;;5074948;28;20445;-56
2022/08/18 02:51:11;;;;;;;20.33;8.27;;;19.20;99.90;;;;;;5075124;28;20060;-56
2022/08/18 02:53:38;;;;;;;20.63;8.20;;;19.00;99.90;;;;;;5074614;28;20490;-56
2022/08/18 02:58:48;;;;;;;23.67;8.40;;;19.20;99.90;;;;;;5075018;28;20044;-57
2022/08/18 03:01:14;;;;;;;21.13;7.70;;;19.30;99.90;;;;;;5074757;28;20537;-56
2022/08/18 03:03:40;;;;;;;19.60;7.45;;;19.30;99.90;;;;;;5074799;28;20071;-56
2022/08/18 03:06:06;;;;;;;19.63;7.82;;;19.10;99.90;;;;;;5074903;28;20063;-56
2022/08/18 03:08:32;;;;;;;24.33;7.60;;;19.30;99.90;;;;;;5074789;28;20040;-56
2022/08/18 03:10:58;;;;;;;18.17;6.55;;;19.20;99.90;;;;;;5074442;28;20043;-55
2022/08/18 03:13:24;;;;;;;18.13;6.57;;;19.30;99.90;;;;;;5074777;28;20059;-56
2022/08/18 03:15:50;;;;;;;24.35;7.30;;;19.40;99.90;;;;;;5074703;28;20032;-56
2022/08/18 03:18:16;;;;;;;19.30;7.97;;;19.10;99.90;;;;;;5074633;28;20123;-57
2022/08/18 03:20:45;;;;;;;26.88;8.40;;;19.10;99.90;;;;;;5074603;28;20115;-57
2022/08/18 03:23:11;;;;;;;13.93;7.25;;;19.50;99.90;;;;;;5073151;28;20041;-57
2022/08/18 03:25:48;;;;;;;17.13;7.13;;;19.30;99.90;;;;;;5074399;28;20047;-56
2022/08/18 03:28:15;;;;;;;21.95;7.60;;;19.50;99.90;;;;;;5074484;28;20447;-56
2022/08/18 03:30:42;;;;;;;14.93;7.13;;;19.20;99.90;;;;;;5074337;28;20115;-57
2022/08/18 03:33:08;;;;;;;20.88;6.82;;;19.30;99.90;;;;;;5074329;28;20426;-57
2022/08/18 03:35:36;;;;;;;16.52;7.43;;;19.20;99.90;;;;;;5074372;28;20032;-57
2022/08/18 03:38:02;;;;;;;21.55;8.10;;;19.40;99.90;;;;;;5074235;28;20033;-57
2022/08/18 03:40:28;;;;;;;14.75;7.57;;;19.30;99.90;;;;;;5074230;28;20044;-57
2022/08/18 03:42:54;;;;;;;29.80;8.05;;;19.10;99.90;;;;;;5073988;28;20379;-58
2022/08/18 03:45:21;;;;;;;20.33;7.97;;;19.30;99.90;;;;;;5074131;28;20043;-57
2022/08/18 03:47:50;;;;;;;15.15;7.28;;;19.30;99.90;;;;;;5074111;28;20044;-57
2022/08/18 03:50:17;;;;;;;15.70;7.28;;;19.20;99.90;;;;;;5073765;28;20055;-56
2022/08/18 03:52:47;;;;;;;19.40;7.45;;;19.20;99.90;;;;;;5073985;28;20386;-56
2022/08/18 03:55:14;;;;;;;16.92;8.43;;;19.10;99.90;;;;;;5074090;28;20041;-57
2022/08/18 03:57:41;;;;;;;16.65;8.32;;;19.30;99.90;;;;;;5073676;28;20494;-58
2022/08/18 04:00:08;;;;;;;18.30;7.68;;;19.20;99.90;;;;;;5073987;28;20124;-58
2022/08/18 04:02:34;;;;;;;16.45;6.80;;;19.40;99.90;;;;;;5073974;28;20033;-57
2022/08/18 04:05:00;;;;;;;13.15;6.53;;;19.30;99.90;;;;;;5073004;28;20463;-57
2022/08/18 04:07:25;;;;;;;14.32;6.60;;;19.10;99.90;;;;;;5073770;28;20115;-58
2022/08/18 04:09:51;;;;;;;14.95;6.38;;;19.20;99.90;;;;;;5073775;28;20052;-57
2022/08/18 04:12:16;;;;;;;11.23;5.95;;;19.40;99.90;;;;;;5073625;28;20540;-57
2022/08/18 04:14:46;;;;;;;12.95;5.88;;;19.20;99.90;;;;;;5073693;28;20036;-58
2022/08/18 04:17:12;;;;;;;17.08;6.32;;;19.40;99.90;;;;;;5073810;28;20041;-58
2022/08/18 04:19:38;;;;;;;13.80;6.93;;;19.40;99.90;;;;;;5073773;28;20041;-58
2022/08/18 04:22:04;;;;;;;13.38;6.85;;;19.20;99.90;;;;;;5073741;28;20376;-58
2022/08/18 04:24:33;;;;;;;12.30;6.10;;;19.40;99.90;;;;;;5073727;28;20119;-57
2022/08/18 04:26:59;;;;;;;;;;;19.30;99.90;;;;;;5072973;28;20068;-57
2022/08/18 04:29:27;;;;;;;12.38;6.38;;;19.30;99.90;;;;;;5073714;28;19927;-56
2022/08/18 04:31:53;;;;;;;15.05;6.53;;;19.00;99.90;;;;;;5073557;28;20390;-55
2022/08/18 04:34:21;;;;;;;11.68;6.47;;;19.20;99.90;;;;;;5073629;28;20036;-56
2022/08/18 04:36:49;;;;;;;20.17;7.28;;;19.40;99.90;;;;;;5073515;28;20036;-57
2022/08/18 04:39:14;;;;;;;10.77;6.78;;;19.10;99.90;;;;;;5073618;28;20177;-55
2022/08/18 04:41:42;;;;;;;11.70;7.15;;;19.00;99.90;;;;;;5073244;28;20041;-56
2022/08/18 04:44:09;;;;;;;12.77;7.75;;;19.30;99.90;;;;;;5073422;28;20067;-57
2022/08/18 04:46:42;;;;;;;15.32;8.65;;;19.00;99.90;;;;;;5073524;28;20045;-56
2022/08/18 04:49:09;;;;;;;21.45;9.43;;;19.10;99.90;;;;;;5073250;28;20123;-57
2022/08/18 04:51:38;;;;;;;16.90;8.30;;;19.10;99.90;;;;;;5073092;28;20049;-56
2022/08/18 04:54:04;;;;;;;10.05;7.75;;;19.00;99.90;;;;;;5073496;28;20131;-55
2022/08/18 04:56:35;;;;;;;19.40;10.30;;;19.00;99.90;;;;;;5072695;28;20116;-56
2022/08/18 04:59:05;;;;;;;19.80;11.10;;;19.00;99.90;;;;;;5071835;28;20459;-57
2022/08/18 05:01:35;;;;;;;19.13;11.73;;;19.10;99.90;;;;;;5073309;28;20119;-57
2022/08/18 05:04:01;;;;;;;13.95;9.15;;;19.10;99.90;;;;;;5073231;28;20120;-57
2022/08/18 05:06:27;;;;;;;17.10;9.63;;;19.00;99.90;;;;;;5073301;28;20115;-57
2022/08/18 05:09:00;;;;;;;16.35;11.13;;;19.00;99.90;;;;;;5073319;28;20044;-57
2022/08/18 05:11:28;;;;;;;14.32;10.73;;;19.00;99.90;;;;;;5073088;28;20494;-57
2022/08/18 05:13:57;;;;;;;19.92;11.68;;;19.30;99.90;;;;;;5073162;28;20029;-57
2022/08/18 05:16:23;;;;;;;15.20;11.40;;;18.90;99.90;;;;;;5074974;28;20379;-56
2022/08/18 05:18:52;;;;;;;11.70;9.55;;;19.10;99.90;;;;;;5077123;28;20036;-56
2022/08/18 05:21:19;;;;;;;11.10;7.78;;;18.90;99.90;;;;;;5076865;28;20039;-56
2022/08/18 05:23:47;;;;;;;15.30;9.45;;;19.00;99.90;;;;;;5076877;28;20082;-57
2022/08/18 05:26:14;;;;;;;12.63;10.07;;;19.20;99.90;;;;;;5076841;28;20360;-56
2022/08/18 05:28:41;;;;;;;22.10;8.43;;;19.00;99.90;;;;;;5076487;28;20115;-57
2022/08/18 05:31:10;;;;;;;12.48;7.40;;;19.20;99.90;;;;;;5076439;28;20544;-56
2022/08/18 05:33:38;;;;;;;10.60;5.55;;;19.20;99.90;;;;;;5076479;28;20494;-56
2022/08/18 05:36:16;;;;;;;8.57;5.90;;;19.40;99.90;;;;;;5076602;28;20165;-58
2022/08/18 05:39:08;;;;;;;13.38;5.90;;;19.10;99.90;;;;;;5076637;28;20036;-55
2022/08/18 05:41:38;;;;;;;13.95;6.13;;;19.40;99.90;;;;;;5054198;28;20519;-55
2022/08/18 05:44:07;;;;;;;12.02;5.38;;;19.40;99.90;;;;;;5054377;28;20491;-55
2022/08/18 05:46:51;;;;;;;12.50;6.05;;;19.40;99.90;;;;;;5054215;28;20078;-57
2022/08/18 05:49:16;;;;;;;12.85;5.70;;;19.40;99.90;;;;;;5053936;28;20053;-56
2022/08/18 05:51:51;;;;;;;11.35;5.10;;;19.10;99.90;;;;;;5054028;28;20052;-56
2022/08/18 05:57:09;;;;;;;9.02;4.65;;;19.20;99.90;;;;;;5054099;28;20609;-57
2022/08/18 05:59:38;;;;;;;14.48;5.75;;;19.30;99.90;;;;;;5054045;28;20164;-55
2022/08/18 06:02:12;;;;;;;;;;;19.30;99.90;;;;;;5054173;28;20123;-57
2022/08/18 06:04:42;;;;;;;13.25;7.03;;;19.30;99.90;;;;;;5053758;28;19917;-55
2022/08/18 06:07:14;;;;;;;19.42;6.03;;;19.40;99.90;;;;;;5053846;28;20040;-56
2022/08/18 06:09:50;;;;;;;10.85;6.50;;;19.50;99.90;;;;;;5053565;28;20041;-56
2022/08/18 06:12:48;;;;;;;12.07;6.93;;;19.60;99.90;;;;;;5053703;28;20458;-56
2022/08/18 06:15:13;;;;;;;13.00;7.03;;;19.70;99.90;;;;;;5052934;28;20044;-56
2022/08/18 06:17:54;;;;;;;11.57;7.10;;;19.50;99.90;;;;;;5057072;28;20047;-56
2022/08/18 06:20:23;;;;;;;8.35;5.80;;;19.60;99.90;;;;;;5075841;28;20040;-56
2022/08/18 06:23:13;;;;;;;9.90;5.97;;;19.40;99.90;;;;;;5075552;28;20040;-55
2022/08/18 06:26:01;;;;;;;9.52;4.90;;;19.50;99.90;;;;;;5075766;28;20102;-55
2022/08/18 06:28:51;;;;;;;9.48;4.40;;;19.40;99.90;;;;;;5074784;28;20044;-56
2022/08/18 06:31:31;;;;;;;11.55;5.10;;;19.70;99.90;;;;;;5075369;28;20142;-56
2022/08/18 06:34:08;;;;;;;12.98;4.72;;;19.70;99.90;;;;;;5075567;28;20068;-56
2022/08/18 06:36:54;;;;;;;13.40;4.75;;;19.80;99.90;;;;;;5075899;28;20079;-56
2022/08/18 06:39:25;;;;;;;16.50;5.35;;;19.60;99.90;;;;;;5075108;28;20101;-55
2022/08/18 06:41:52;;;;;;;14.40;4.38;;;19.70;99.90;;;;;;5075390;28;20069;-56
2022/08/18 06:44:36;;;;;;;9.95;4.20;;;19.60;99.90;;;;;;5075334;28;20044;-56
2022/08/18 06:47:26;;;;;;;13.90;3.53;;;19.80;99.90;;;;;;5075325;28;20091;-56
2022/08/18 06:50:04;;;;;;;14.60;3.80;;;19.90;99.90;;;;;;5074992;28;20056;-55
2022/08/18 06:52:50;;;;;;;11.10;3.27;;;20.00;99.90;;;;;;5075172;28;20048;-56
2022/08/18 06:55:29;;;;;;;18.20;4.00;;;19.90;99.90;;;;;;5075143;28;20112;-56
2022/08/18 06:58:00;;;;;;;9.27;3.85;;;19.90;99.90;;;;;;5075078;28;20037;-57
2022/08/18 07:00:30;;;;;;;10.30;3.55;;;19.80;99.90;;;;;;5074927;28;20040;-56
2022/08/18 07:03:19;;;;;;;10.48;3.80;;;19.60;99.90;;;;;;5074749;28;20044;-56
2022/08/18 07:06:09;;;;;;;10.55;2.67;;;19.80;99.90;;;;;;5075035;28;20395;-56
2022/08/18 07:08:41;;;;;;;12.55;3.35;;;19.70;99.90;;;;;;5074714;28;20075;-55
2022/08/18 07:11:15;;;;;;;16.17;3.63;;;19.70;99.90;;;;;;5075081;28;20097;-56
2022/08/18 07:13:43;;;;;;;8.60;3.50;;;19.80;99.90;;;;;;5074793;28;20414;-56
2022/08/18 07:16:31;;;;;;;16.90;3.08;;;19.50;99.90;;;;;;5074708;28;20467;-56
2022/08/18 07:19:08;;;;;;;17.20;4.65;;;19.60;99.90;;;;;;5074621;28;20037;-56
2022/08/18 07:21:36;;;;;;;11.23;3.28;;;19.70;99.90;;;;;;5074536;28;20049;-57
2022/08/18 07:24:27;;;;;;;10.05;2.85;;;19.70;99.90;;;;;;5074461;28;20540;-57
2022/08/18 07:27:01;;;;;;;;;;;19.70;99.90;;;;;;5074970;28;20033;-56
2022/08/18 07:29:55;;;;;;;16.63;3.22;;;19.70;99.90;;;;;;5074404;28;19916;-56
2022/08/18 07:32:24;;;;;;;15.13;3.70;;;19.50;99.90;;;;;;5071285;28;20057;-56
2022/08/18 07:34:54;;;;;;;11.07;3.35;;;19.40;99.90;;;;;;5074435;28;20051;-55
2022/08/18 07:37:31;;;;;;;11.88;3.08;;;19.60;99.90;;;;;;5074321;28;20044;-56
2022/08/18 07:40:06;;;;;;;11.52;3.10;;;19.40;99.90;;;;;;5074120;28;20036;-56
2022/08/18 07:43:00;;;;;;;6.45;2.75;;;19.30;99.90;;;;;;5074122;28;20040;-56
2022/08/18 07:45:32;;;;;;;11.23;3.88;;;19.60;99.90;;;;;;5073055;28;20048;-57
2022/08/18 07:48:09;;;;;;;6.72;3.03;;;19.80;99.90;;;;;;5074129;28;20036;-56
2022/08/18 07:50:56;;;;;;;10.35;2.83;;;19.90;99.90;;;;;;5073638;28;20062;-57
2022/08/18 07:53:38;;;;;;;9.13;3.20;;;19.60;99.90;;;;;;5074537;28;20105;-56
2022/08/18 07:56:13;;;;;;;6.32;3.08;;;20.00;99.90;;;;;;5073882;28;20454;-57
2022/08/18 07:58:49;;;;;;;8.63;2.88;;;19.90;99.90;;;;;;5073981;28;20127;-57
2022/08/18 08:01:30;;;;;;;8.43;2.80;;;20.00;99.90;;;;;;5074027;28;20461;-57
2022/08/18 08:04:02;;;;;;;9.90;2.95;;;19.90;99.90;;;;;;5073994;28;20040;-56
2022/08/18 08:06:41;;;;;;;4.82;2.10;;;20.50;99.90;;;;;;5073900;28;20102;-56
2022/08/18 08:09:12;;;;;;;6.28;1.95;;;20.50;99.90;;;;;;5073853;28;20056;-56
2022/08/18 08:11:58;;;;;;;7.35;2.40;;;20.80;99.90;;;;;;5073777;28;20048;-56
2022/08/18 08:14:39;;;;;;;8.45;3.15;;;20.70;99.90;;;;;;5074195;28;20032;-57
2022/08/18 08:17:16;;;;;;;11.80;2.53;;;20.70;99.90;;;;;;5073745;28;20044;-57
2022/08/18 08:20:11;;;;;;;3.65;2.00;;;20.60;99.90;;;;;;5073837;28;20115;-56
2022/08/18 08:22:48;;;;;;;3.60;1.75;;;20.50;99.90;;;;;;5073775;28;20047;-56
2022/08/18 08:25:23;;;;;;;5.40;2.13;;;20.70;99.90;;;;;;5073776;28;20043;-56
2022/08/18 08:28:08;;;;;;;8.43;2.03;;;20.60;99.90;;;;;;5072310;28;20085;-57
2022/08/18 08:30:42;;;;;;;3.53;1.70;;;20.70;99.90;;;;;;5073633;28;20036;-57
2022/08/18 08:33:31;;;;;;;5.65;1.90;;;20.70;99.90;;;;;;5073667;28;20047;-57
2022/08/18 08:36:06;;;;;;;4.13;1.73;;;20.60;99.90;;;;;;5073613;28;20437;-57
2022/08/18 08:38:46;;;;;;;4.60;1.80;;;20.60;99.90;;;;;;5073519;28;20044;-57
2022/08/18 08:41:26;;;;;;;4.25;2.10;;;20.60;99.90;;;;;;5073638;28;20086;-56
2022/08/18 08:44:09;;;;;;;6.05;2.72;;;20.90;99.90;;;;;;5072522;28;20545;-58
2022/08/18 08:46:50;;;;;;;3.50;1.55;;;20.80;99.90;;;;;;5073403;28;20044;-57
2022/08/18 08:49:41;;;;;;;2.60;1.35;;;20.90;99.90;;;;;;5073350;28;20118;-57
2022/08/18 08:52:23;;;;;;;4.53;1.48;;;21.00;99.90;;;;;;5076658;28;20090;-57
2022/08/18 08:55:20;;;;;;;5.43;1.60;;;20.80;99.90;;;;;;5077392;28;20040;-58
2022/08/18 08:58:02;;;;;;;6.90;2.03;;;20.80;99.90;;;;;;5076490;28;20048;-57
2022/08/18 09:00:28;;;;;;;5.63;1.77;;;20.80;99.90;;;;;;5077364;28;20040;-57
2022/08/18 09:03:17;;;;;;;6.03;2.10;;;20.70;99.90;;;;;;5077333;28;20044;-57
2022/08/18 09:05:55;;;;;;;6.40;1.70;;;20.70;99.90;;;;;;5075931;28;20051;-58
2022/08/18 09:08:40;;;;;;;3.55;1.80;;;20.80;99.90;;;;;;5077092;28;20040;-58
2022/08/18 09:11:25;;;;;;;5.45;1.90;;;20.60;99.90;;;;;;5076984;28;20054;-57
2022/08/18 09:13:51;;;;;;;5.93;2.00;;;20.60;99.90;;;;;;5076827;28;20047;-57
2022/08/18 09:16:57;;;;;;;6.18;2.33;;;20.60;99.90;;;;;;5077019;28;20119;-57
2022/08/18 09:19:31;;;;;;;2.92;1.73;;;20.60;99.90;;;;;;5076957;28;20036;-57
2022/08/18 09:22:28;;;;;;;8.65;2.70;;;20.60;99.90;;;;;;5076661;28;20080;-57
2022/08/18 09:24:54;;;;;;;11.10;2.40;;;20.60;99.90;;;;;;5054837;28;20057;-58
2022/08/18 09:27:40;;;;;;;7.07;2.22;;;20.70;99.90;;;;;;5054675;28;20080;-57
2022/08/18 09:30:08;;;;;;;5.82;2.20;;;20.50;99.90;;;;;;5054501;28;20056;-58
2022/08/18 09:32:51;;;;;;;4.18;2.10;;;20.60;99.90;;;;;;5054886;28;20167;-57
2022/08/18 09:35:43;;;;;;;4.35;2.10;;;20.50;99.90;;;;;;5054322;28;20037;-59
2022/08/18 09:41:34;;;;;;;5.03;2.13;;;20.70;99.90;;;;;;5054288;28;20056;-57
2022/08/18 09:44:09;;;;;;;2.70;1.55;;;20.80;99.90;;;;;;5054324;28;20127;-57
2022/08/18 09:46:46;;;;;;;5.05;2.22;;;20.80;99.90;;;;;;5054094;28;20045;-57
2022/08/18 09:49:45;;;;;;;6.00;1.80;;;20.90;99.90;;;;;;5053972;28;20131;-59
2022/08/18 09:52:22;;;;;;;4.65;1.40;;;21.00;99.90;;;;;;5053966;28;20064;-57
2022/08/18 09:54:57;;;;;;;4.47;1.65;;;21.10;99.90;;;;;;5037689;28;20099;-58
2022/08/18 09:57:28;;;;;;;6.38;2.10;;;21.50;99.90;;;;;;5054126;28;20407;-57
2022/08/18 09:59:58;;;;;;;3.58;1.50;;;21.80;99.90;;;;;;5053928;28;20041;-57
2022/08/18 10:02:30;;;;;;;8.35;1.90;;;21.90;99.90;;;;;;5067513;28;20376;-57
2022/08/18 10:05:14;;;;;;;4.40;1.40;;;22.00;99.90;;;;;;5076155;28;20115;-57
2022/08/18 10:08:16;;;;;;;3.03;1.27;;;21.90;99.90;;;;;;5076073;28;20102;-57
2022/08/18 10:10:43;;;;;;;4.25;1.30;;;21.90;99.90;;;;;;5053462;28;20053;-58
2022/08/18 10:13:46;;;;;;;3.63;1.40;;;21.80;99.90;;;;;;5037363;28;20056;-57
2022/08/18 10:16:49;;;;;;;5.35;2.05;;;21.70;99.90;;;;;;5053752;28;20120;-57
2022/08/18 10:19:33;;;;;;;3.65;1.65;;;21.70;99.90;;;;;;5053718;28;20379;-58
2022/08/18 10:21:58;;;;;;;6.35;1.88;;;21.60;99.90;;;;;;5036936;28;20048;-58
2022/08/18 10:24:35;;;;;;;2.85;1.55;;;21.50;99.90;;;;;;5036506;28;20045;-57
2022/08/18 10:27:05;;;;;;;2.50;1.52;;;21.40;99.90;;;;;;5036731;28;20516;-58
2022/08/18 10:29:49;;;;;;;5.20;1.30;;;21.40;99.90;;;;;;5053400;28;20377;-57
2022/08/18 10:32:14;;;;;;;4.43;1.42;;;21.30;99.90;;;;;;5053295;28;20044;-58
2022/08/18 10:34:46;;;;;;;4.55;1.60;;;21.20;99.90;;;;;;5053414;28;20107;-56
2022/08/18 10:37:20;;;;;;;6.20;1.83;;;21.10;99.90;;;;;;5053414;28;20041;-57
2022/08/18 10:39:50;;;;;;;2.83;1.30;;;21.20;99.90;;;;;;5053107;28;20059;-57
2022/08/18 10:42:46;;;;;;;4.00;1.27;;;21.20;99.90;;;;;;5053224;28;20182;-57
2022/08/18 10:45:32;;;;;;;3.13;1.20;;;21.20;99.90;;;;;;5053261;28;20076;-57
2022/08/18 10:48:04;;;;;;;7.55;1.65;;;21.20;99.90;;;;;;5069278;28;20052;-57
2022/08/18 10:50:38;;;;;;;4.93;1.42;;;21.30;99.90;;;;;;5074920;28;20457;-58
2022/08/18 10:53:16;;;;;;;4.60;1.45;;;21.20;99.90;;;;;;5075349;28;20040;-57
2022/08/18 10:56:00;;;;;;;7.80;1.83;;;21.30;99.90;;;;;;5074410;28;20090;-58
2022/08/18 10:58:52;;;;;;;7.13;2.00;;;21.20;99.90;;;;;;5075057;28;20394;-57
2022/08/18 11:01:59;;;;;;;4.70;1.60;;;21.20;99.90;;;;;;5075080;28;20040;-57
2022/08/18 11:04:29;;;;;;;5.90;2.05;;;21.20;99.90;;;;;;5052746;28;20128;-58
2022/08/18 11:07:07;;;;;;;4.53;1.65;;;21.30;99.90;;;;;;5052708;28;20087;-58
2022/08/18 11:09:33;;;;;;;4.03;1.80;;;21.30;99.90;;;;;;5052544;28;20127;-58
2022/08/18 11:12:02;;;;;;;3.10;1.30;;;21.30;99.90;;;;;;5052466;28;20123;-58
2022/08/18 11:14:49;;;;;;;3.83;1.67;;;21.30;99.90;;;;;;5052289;28;20075;-58
2022/08/18 11:17:37;;;;;;;4.13;1.90;;;21.20;99.90;;;;;;5052555;28;20095;-58
2022/08/18 11:20:06;;;;;;;5.45;1.85;;;21.30;99.90;;;;;;5035802;28;20470;-57
2022/08/18 11:22:34;;;;;;;6.38;1.77;;;21.40;99.90;;;;;;5052429;28;20053;-57
2022/08/18 11:25:02;;;;;;;4.40;2.00;;;21.50;99.90;;;;;;5035690;28;20431;-56
2022/08/18 11:27:36;;;;;;;4.38;1.80;;;21.60;99.90;;;;;;5052315;28;20048;-57
2022/08/18 11:30:04;;;;;;;4.80;1.40;;;21.90;99.90;;;;;;5052387;28;20068;-58
2022/08/18 11:32:31;;;;;;;4.88;1.35;;;22.00;99.90;;;;;;5052353;28;20037;-57
2022/08/18 11:34:57;;;;;;;3.70;1.50;;;22.20;99.90;;;;;;5052226;28;20045;-57
2022/08/18 11:37:27;;;;;;;2.13;1.30;;;22.40;99.90;;;;;;5035539;28;20419;-57
2022/08/18 11:39:58;;;;;;;2.92;1.48;;;22.60;99.90;;;;;;5052132;28;20553;-56
2022/08/18 11:42:32;;;;;;;5.00;1.80;;;22.70;99.90;;;;;;5072163;28;20395;-58
2022/08/18 11:45:05;;;;;;;9.07;2.33;;;22.80;99.90;;;;;;5074311;28;20091;-57
2022/08/18 11:47:32;;;;;;;5.47;1.67;;;22.70;99.90;;;;;;5074145;28;20494;-57
2022/08/18 11:50:08;;;;;;;5.30;2.20;;;23.00;99.90;;;;;;5073756;28;20052;-58
2022/08/18 11:52:47;;;;;;;5.65;1.67;;;23.00;99.90;;;;;;5074167;28;20055;-57
2022/08/18 11:55:40;;;;;;;4.45;1.73;;;23.00;99.90;;;;;;5073956;28;20538;-57
2022/08/18 11:58:06;;;;;;;4.03;1.40;;;23.00;99.90;;;;;;5072900;28;20041;-57
2022/08/18 12:00:52;;;;;;;3.70;1.40;;;23.10;99.90;;;;;;5074091;28;20048;-58
2022/08/18 12:03:29;;;;;;;3.60;1.73;;;23.40;99.90;;;;;;5072595;28;20041;-57
2022/08/18 12:06:12;;;;;;;3.15;1.33;;;23.60;99.90;;;;;;5074120;28;20111;-57
2022/08/18 12:09:13;;;;;;;3.40;1.38;;;23.60;99.90;;;;;;5073846;28;20040;-57
2022/08/18 12:11:52;;;;;;;6.70;1.80;;;23.60;99.90;;;;;;5051413;28;20060;-57
2022/08/18 12:14:20;;;;;;;;;;;23.80;99.90;;;;;;5052125;28;20040;-57
2022/08/18 12:16:47;;;;;;;3.92;1.60;;;24.10;99.90;;;;;;5051650;28;19920;-56
2022/08/18 12:19:14;;;;;;;4.57;1.40;;;24.40;99.90;;;;;;5051460;28;20104;-57
2022/08/18 12:21:43;;;;;;;2.33;1.15;;;24.70;99.90;;;;;;5035425;28;20514;-57
2022/08/18 12:24:21;;;;;;;2.10;1.50;;;24.90;99.90;;;;;;5051439;28;20428;-57
2022/08/18 12:26:48;;;;;;;1.58;1.10;;;25.00;99.90;;;;;;5051041;28;20056;-57
2022/08/18 12:29:16;;;;;;;5.00;1.20;;;24.80;99.90;;;;;;5051531;28;20132;-57
2022/08/18 12:31:42;;;;;;;;;;;24.60;99.90;;;;;;5035743;28;20454;-58
2022/08/18 12:34:08;;;;;;;3.00;1.60;;;24.50;99.90;;;;;;5051356;28;20310;-57
2022/08/18 12:36:34;;;;;;;5.63;1.65;;;24.50;99.90;;;;;;5051367;28;20049;-57
2022/08/18 12:39:00;;;;;;;3.40;1.50;;;24.30;99.90;;;;;;5051448;28;20041;-58
2022/08/18 12:41:25;;;;;;;5.50;1.70;;;24.30;99.90;;;;;;5051349;28;20051;-58
2022/08/18 12:43:52;;;;;;;5.18;1.65;;;24.40;99.90;;;;;;5034813;28;20489;-58
2022/08/18 12:46:19;;;;;;;3.58;1.50;;;24.10;99.90;;;;;;5035123;28;20111;-58
2022/08/18 12:48:44;;;;;;;5.03;1.48;;;24.10;99.90;;;;;;5057005;28;20052;-58
2022/08/18 12:51:12;;;;;;;4.05;1.48;;;24.30;99.90;;;;;;5073221;28;20132;-58
2022/08/18 12:53:38;;;;;;;3.17;1.33;;;24.60;99.90;;;;;;5072154;28;20052;-58
2022/08/18 12:56:25;;;;;;;4.82;1.60;;;24.70;99.90;;;;;;5073438;28;20115;-58
2022/08/18 12:58:52;;;;;;;1.70;1.08;;;24.80;99.90;;;;;;5073369;28;20036;-57
2022/08/18 13:01:19;;;;;;;3.50;1.15;;;24.90;99.90;;;;;;5073433;28;20055;-58
2022/08/18 13:03:45;;;;;;;5.63;1.75;;;24.70;99.90;;;;;;5073200;28;20471;-58
2022/08/18 13:06:12;;;;;;;2.35;1.50;;;24.70;99.90;;;;;;5073310;28;20040;-57
2022/08/18 13:08:38;;;;;;;4.72;1.73;;;24.40;99.90;;;;;;5073311;28;20098;-57
2022/08/18 13:11:09;;;;;;;4.95;1.63;;;24.30;99.90;;;;;;5073166;28;20070;-58
2022/08/18 13:13:36;;;;;;;3.85;1.40;;;24.20;99.90;;;;;;5073309;28;20037;-58
2022/08/18 13:16:02;;;;;;;2.72;1.30;;;24.00;99.90;;;;;;5073313;28;20037;-58
2022/08/18 13:18:28;;;;;;;2.85;1.65;;;24.20;99.90;;;;;;5073229;28;20051;-57
2022/08/18 13:20:53;;;;;;;1.92;1.23;;;24.50;99.90;;;;;;5073106;28;20120;-58
2022/08/18 13:23:19;;;;;;;3.88;1.50;;;24.50;99.90;;;;;;5073222;28;20040;-57
2022/08/18 13:25:45;;;;;;;4.13;1.60;;;24.70;99.90;;;;;;5073149;28;20109;-57
2022/08/18 13:28:10;;;;;;;3.30;1.42;;;24.90;99.90;;;;;;5073172;28;20383;-58
2022/08/18 13:30:36;;;;;;;1.80;1.17;;;24.90;99.90;;;;;;5072811;28;20480;-58